Date,TemperatureHighF,TemperatureAvgF,TemperatureLowF,DewpointHighF,DewpointAvgF,DewpointLowF,HumidityHigh,HumidityAvg,HumidityLow,PressureMaxIn,PressureMinIn,WindSpeedMaxMPH,WindSpeedAvgMPH,GustSpeedMaxMPH,PrecipitationSumIn
2013-3-1,75,58,39,32,22,10,37,25,18,30.27,30.15,7,0,7,0.00
2013-3-2,83,62,43,37,29,21,45,30,19,30.27,30.06,6,0,6,0.00
2013-3-3,81,64,46,37,29,24,44,28,17,30.09,29.91,6,0,6,0.00
2013-3-4,72,63,55,32,28,21,37,27,22,30.03,29.85,10,1,10,0.00
2013-3-5,82,62,44,40,31,26,54,33,20,30.09,29.94,9,0,9,0.00
2013-3-6,82,66,52,39,32,27,45,30,20,30.03,29.88,6,0,6,0.00
2013-3-7,80,64,48,36,30,24,45,30,17,29.94,29.85,11,1,11,0.00
2013-3-8,66,57,42,47,36,25,75,48,26,29.94,29.76,20,2,20,0.04
2013-3-9,54,47,43,39,35,33,79,64,48,30.03,29.94,8,0,8,0.04
2013-3-10,63,51,44,39,35,28,72,56,28,30.12,30.03,8,1,8,0.00
2013-3-11,55,52,50,34,33,32,52,47,43,30.03,30.03,0,0,0,0.00
2013-3-12,82,63,43,39,35,28,62,38,20,30.06,29.97,8,0,8,0.00
2013-3-13,88,69,50,40,35,25,53,31,18,30.12,30.00,5,0,5,0.00
2013-3-14,91,73,54,40,32,24,36,24,15,30.12,29.97,6,0,6,0.00
2013-3-15,92,73,52,41,32,26,38,24,14,30.03,29.88,10,0,10,0.00
2013-3-16,90,72,54,40,30,23,32,22,13,29.91,29.74,14,1,14,0.00
2013-3-17,84,68,53,36,28,22,30,23,16,29.91,29.79,16,1,16,0.00
2013-3-18,83,67,50,37,30,22,38,26,16,29.97,29.88,7,0,7,0.00
2013-3-19,81,67,54,39,31,25,38,27,20,30.03,29.91,6,0,6,0.00
2013-3-20,86,69,52,40,33,26,43,28,18,30.03,29.85,6,0,6,0.00
2013-3-21,83,68,57,40,33,28,37,28,20,29.85,29.74,6,0,6,0.00
2013-3-22,81,68,54,41,32,25,41,28,20,29.79,29.68,10,0,10,0.00
2013-3-23,75,63,50,41,28,15,49,29,15,29.94,29.79,13,0,13,0.00
2013-3-24,77,62,44,29,20,10,27,20,15,29.97,29.85,6,0,8,0.00
2013-3-25,82,66,47,33,24,14,27,21,15,29.97,29.85,9,0,9,0.00
2013-3-26,91,71,52,37,27,19,29,20,12,29.97,29.79,10,0,10,0.00
2013-3-29,88,78,68,36,29,22,17,16,14,30.03,29.97,8,0,8,0.00